createdAt,value
2022-11-13T00:01:58.432Z,101866.78
2022-11-13T00:04:00.483Z,101871.84
2022-11-13T00:06:03.045Z,101873.25
2022-11-13T00:08:05.209Z,101870.25
2022-11-13T00:10:07.374Z,101858.16
2022-11-13T00:12:09.198Z,101868.03
2022-11-13T00:14:11.357Z,101857.09
2022-11-13T00:16:16.673Z,101864.59
2022-11-13T00:18:18.482Z,101861.63
2022-11-13T00:20:20.683Z,101855.88
2022-11-13T00:22:22.462Z,101853.94
2022-11-13T00:24:24.238Z,101868.16
2022-11-13T00:26:28.745Z,101869.41
2022-11-13T00:28:31.049Z,101863.44
2022-11-13T00:30:32.898Z,101859.25
2022-11-13T00:32:35.091Z,101864.50
2022-11-13T00:34:52.294Z,101861.44
2022-11-13T00:36:54.109Z,101856.03
2022-11-13T00:38:56.529Z,101857.38
2022-11-13T00:40:59.043Z,101861.44
2022-11-13T00:43:00.822Z,101863.06
2022-11-13T00:45:03.038Z,101860.91
2022-11-13T00:47:05.074Z,101854.38
2022-11-13T00:49:06.954Z,101860.16
2022-11-13T00:51:09.115Z,101863.22
2022-11-13T00:53:16.836Z,101861.72
2022-11-13T00:55:20.049Z,101839.81
2022-11-13T00:57:22.226Z,101858.38
2022-11-13T00:59:24.011Z,101844.38
2022-11-13T01:01:25.832Z,101845.88
2022-11-13T01:03:28.070Z,101836.91
2022-11-13T01:05:30.066Z,101843.56
2022-11-13T01:07:31.983Z,101830.09
2022-11-13T01:09:34.147Z,101834.38
2022-11-13T01:11:35.930Z,101837.38
2022-11-13T01:13:38.897Z,101835.72
2022-11-13T01:15:43.248Z,101839.53
2022-11-13T01:17:45.135Z,101846.63
2022-11-13T01:19:47.031Z,101836.69
2022-11-13T01:21:49.161Z,101843.94
2022-11-13T01:23:51.452Z,101841.38
2022-11-13T01:25:53.251Z,101843.09
2022-11-13T01:27:55.541Z,101829.50
2022-11-13T01:29:57.336Z,101844.31
2022-11-13T01:31:59.132Z,101827.41
2022-11-13T01:34:01.566Z,101834.88
2022-11-13T01:36:13.186Z,101821.69
2022-11-13T01:38:15.267Z,101823.31
2022-11-13T01:40:17.578Z,101815.47
2022-11-13T01:42:19.389Z,101811.53
2022-11-13T01:44:21.541Z,101829.03
2022-11-13T01:46:31.206Z,101827.06
2022-11-13T01:48:42.387Z,101828.91
2022-11-13T01:50:44.236Z,101825.09
2022-11-13T01:52:46.430Z,101820.38
2022-11-13T01:54:55.255Z,101820.13
2022-11-13T01:56:58.295Z,101821.06
2022-11-13T01:59:28.928Z,101820.75
2022-11-13T02:01:30.807Z,101818.72
2022-11-13T02:03:32.659Z,101815.75
2022-11-13T02:05:35.069Z,101812.75
2022-11-13T02:07:36.926Z,101825.16
2022-11-13T02:09:43.286Z,101816.19
2022-11-13T02:11:45.923Z,101810.88
2022-11-13T02:13:48.170Z,101817.16
2022-11-13T02:15:51.025Z,101805.94
2022-11-13T02:17:57.606Z,101815.56
2022-11-13T02:20:02.090Z,101804.91
2022-11-13T02:22:28.205Z,101810.94
2022-11-13T02:24:36.782Z,101808.78
2022-11-13T02:26:40.316Z,101817.91
2022-11-13T02:28:42.162Z,101810.13
2022-11-13T02:30:44.534Z,101799.88
2022-11-13T02:32:49.498Z,101803.16
2022-11-13T02:34:51.307Z,101814.63
2022-11-13T02:36:53.570Z,101800.03
2022-11-13T02:38:58.669Z,101811.84
2022-11-13T02:41:00.759Z,101794.41
2022-11-13T02:43:02.867Z,101809.00
2022-11-13T02:45:06.443Z,101803.91
2022-11-13T02:47:08.339Z,101806.22
2022-11-13T02:49:10.463Z,101808.56
2022-11-13T02:51:12.240Z,101805.94
2022-11-13T02:53:14.084Z,101785.81
2022-11-13T02:55:16.320Z,101799.19
2022-11-13T02:57:18.324Z,101796.94
2022-11-13T02:59:20.103Z,101800.03
2022-11-13T03:01:22.441Z,101799.13
2022-11-13T03:03:55.576Z,101802.66
2022-11-13T03:05:50.191Z,101796.44
2022-11-13T03:07:52.430Z,101808.63
2022-11-13T03:09:54.253Z,101811.41
2022-11-13T03:11:56.026Z,101809.16
2022-11-13T03:13:58.172Z,101810.88
2022-11-13T03:16:15.163Z,101807.13
2022-11-13T03:18:16.988Z,101801.91
2022-11-13T03:20:19.270Z,101803.47
2022-11-13T03:22:21.103Z,101808.38
2022-11-13T03:24:22.892Z,101808.72
2022-11-13T03:26:27.975Z,101800.53
2022-11-13T03:28:30.134Z,101808.13
2022-11-13T03:30:32.154Z,101815.63
2022-11-13T03:32:34.330Z,101818.28
2022-11-13T03:34:36.139Z,101814.38
2022-11-13T03:36:37.978Z,101805.78
2022-11-13T03:38:40.100Z,101816.41
2022-11-13T03:40:42.801Z,101803.00
2022-11-13T03:42:44.621Z,101806.69
2022-11-13T03:44:46.887Z,101811.94
2022-11-13T03:46:48.707Z,101819.97
2022-11-13T03:48:50.506Z,101814.16
2022-11-13T03:50:55.115Z,101815.94
2022-11-13T03:52:57.149Z,101818.94
2022-11-13T03:54:59.008Z,101819.16
2022-11-13T03:57:01.170Z,101812.81
2022-11-13T03:59:02.963Z,101817.72
2022-11-13T04:01:04.840Z,101811.25
2022-11-13T04:03:07.410Z,101822.31
2022-11-13T04:05:09.435Z,101815.75
2022-11-13T04:07:11.276Z,101818.72
2022-11-13T04:09:13.609Z,101809.47
2022-11-13T04:11:15.400Z,101816.94
2022-11-13T04:13:17.270Z,101808.72
2022-11-13T04:15:19.459Z,101806.31
2022-11-13T04:17:21.313Z,101808.47
2022-11-13T04:19:23.123Z,101811.53
2022-11-13T04:21:25.553Z,101812.63
2022-11-13T04:23:27.566Z,101817.16
2022-11-13T04:25:29.333Z,101816.53
2022-11-13T04:27:31.526Z,101815.50
2022-11-13T04:29:33.327Z,101817.22
2022-11-13T04:31:35.172Z,101821.50
2022-11-13T04:33:37.365Z,101812.16
2022-11-13T04:35:48.605Z,101829.34
2022-11-13T04:37:50.444Z,101817.75
2022-11-13T04:39:52.603Z,101820.59
2022-11-13T04:42:12.925Z,101816.19
2022-11-13T04:44:14.778Z,101811.69
2022-11-13T04:46:16.904Z,101811.47
2022-11-13T04:48:18.686Z,101822.63
2022-11-13T04:50:21.100Z,101818.72
2022-11-13T04:52:23.226Z,101822.16
2022-11-13T04:54:28.716Z,101814.53
2022-11-13T04:56:31.279Z,101819.53
2022-11-13T04:58:33.413Z,101829.28
2022-11-13T05:00:35.186Z,101825.19
2022-11-13T05:02:37.357Z,101826.56
2022-11-13T05:04:39.495Z,101827.94
2022-11-13T05:06:41.569Z,101828.81
2022-11-13T05:08:43.536Z,101830.75
2022-11-13T05:10:45.660Z,101821.66
2022-11-13T05:12:47.547Z,101834.34
2022-11-13T05:14:49.574Z,101828.63
2022-11-13T05:16:51.799Z,101825.53
2022-11-13T05:18:53.644Z,101840.03
2022-11-13T05:20:55.712Z,101828.28
2022-11-13T05:22:57.835Z,101834.00
2022-11-13T05:24:59.606Z,101841.25
2022-11-13T05:27:01.569Z,101840.41
2022-11-13T05:29:03.850Z,101833.00
2022-11-13T05:31:09.976Z,101842.50
2022-11-13T05:33:11.854Z,101841.53
2022-11-13T05:35:14.175Z,101846.84
2022-11-13T05:37:16.043Z,101841.69
2022-11-13T05:39:17.875Z,101850.94
2022-11-13T05:41:22.167Z,101840.03
2022-11-13T05:43:24.044Z,101843.13
2022-11-13T05:45:25.942Z,101835.78
2022-11-13T05:47:28.123Z,101837.22
2022-11-13T05:49:29.945Z,101841.03
2022-11-13T05:51:34.402Z,101852.00
2022-11-13T05:53:37.215Z,101849.47
2022-11-13T05:55:39.048Z,101849.75
2022-11-13T05:57:40.928Z,101845.22
2022-11-13T05:59:43.117Z,101844.22
2022-11-13T06:01:45.125Z,101849.69
2022-11-13T06:03:47.816Z,101843.84
2022-11-13T06:05:50.100Z,101833.38
2022-11-13T06:07:51.920Z,101849.56
2022-11-13T06:09:53.700Z,101852.22
2022-11-13T06:11:55.994Z,101818.38
2022-11-13T06:13:59.024Z,101853.28
2022-11-13T06:16:02.233Z,101851.94
2022-11-13T06:18:04.441Z,101860.78
2022-11-13T06:20:06.655Z,101858.75
2022-11-13T06:22:08.683Z,101839.66
2022-11-13T06:24:12.900Z,101834.34
2022-11-13T06:26:17.878Z,101838.91
2022-11-13T06:28:19.754Z,101844.31
2022-11-13T06:30:22.006Z,101835.28
2022-11-13T06:32:23.841Z,101841.97
2022-11-13T06:34:26.073Z,101827.94
2022-11-13T06:36:31.216Z,101848.13
2022-11-13T06:38:35.677Z,101852.03
2022-11-13T06:40:40.539Z,101855.44
2022-11-13T06:42:45.597Z,101836.69
2022-11-13T06:44:47.516Z,101826.28
2022-11-13T06:46:49.372Z,101857.09
2022-11-13T06:48:52.602Z,101856.59
2022-11-13T06:50:54.445Z,101863.06
2022-11-13T06:52:56.467Z,101857.25
2022-11-13T06:55:00.153Z,101857.00
2022-11-13T06:57:01.982Z,101851.41
2022-11-13T06:59:08.152Z,101857.69
2022-11-13T07:01:14.074Z,101860.53
2022-11-13T07:03:20.614Z,101853.88
2022-11-13T07:05:22.415Z,101857.53
2022-11-13T07:07:24.579Z,101850.72
2022-11-13T07:09:26.719Z,101859.38
2022-11-13T07:11:28.461Z,101848.75
2022-11-13T07:13:30.640Z,101861.56
2022-11-13T07:15:36.998Z,101856.94
2022-11-13T07:17:38.955Z,101845.88
2022-11-13T07:19:41.108Z,101858.88
2022-11-13T07:21:42.934Z,101856.34
2022-11-13T07:23:48.123Z,101850.28
2022-11-13T07:25:53.886Z,101862.72
2022-11-13T07:27:55.652Z,101851.56
2022-11-13T07:30:02.296Z,101864.56
2022-11-13T07:32:06.097Z,101850.59
2022-11-13T07:34:07.938Z,101861.97
2022-11-13T07:36:10.870Z,101856.66
2022-11-13T07:38:13.259Z,101861.13
2022-11-13T07:40:15.202Z,101859.38
2022-11-13T07:42:17.245Z,101860.13
2022-11-13T07:44:33.461Z,101856.03
2022-11-13T07:46:41.341Z,101855.78
2022-11-13T07:48:43.116Z,101850.94
2022-11-13T07:50:45.399Z,101866.00
2022-11-13T07:52:47.251Z,101857.38
2022-11-13T07:54:49.335Z,101858.94
2022-11-13T07:56:51.490Z,101860.06
2022-11-13T07:58:53.495Z,101858.16
2022-11-13T08:00:55.300Z,101849.59
2022-11-13T08:02:57.815Z,101854.88
2022-11-13T08:04:59.628Z,101852.69
2022-11-13T08:07:01.603Z,101851.84
2022-11-13T08:09:04.663Z,101849.22
2022-11-13T08:11:08.912Z,101850.91
2022-11-13T08:13:11.361Z,101850.81
2022-11-13T08:15:13.994Z,101854.59
2022-11-13T08:17:16.010Z,101838.50
2022-11-13T08:19:18.007Z,101858.34
2022-11-13T08:21:21.378Z,101858.97
2022-11-13T08:23:23.585Z,101852.56
2022-11-13T08:25:25.526Z,101850.72
2022-11-13T08:27:28.214Z,101853.03
2022-11-13T08:29:30.164Z,101848.22
2022-11-13T08:31:32.103Z,101852.81
2022-11-13T08:33:34.273Z,101845.81
2022-11-13T08:35:36.179Z,101853.66
2022-11-13T08:37:38.003Z,101864.91
2022-11-13T08:39:40.350Z,101836.63
2022-11-13T08:41:42.131Z,101857.66
2022-11-13T08:43:43.932Z,101856.13
2022-11-13T08:45:47.487Z,101859.91
2022-11-13T08:47:49.348Z,101853.34
2022-11-13T08:49:51.117Z,101838.00
2022-11-13T08:51:53.258Z,101854.78
2022-11-13T08:53:55.319Z,101850.78
2022-11-13T08:56:01.990Z,101857.75
2022-11-13T08:58:05.087Z,101858.81
2022-11-13T09:00:07.807Z,101854.28
2022-11-13T09:02:14.502Z,101842.50
2022-11-13T09:04:16.776Z,101858.28
2022-11-13T09:06:18.687Z,101858.69
2022-11-13T09:08:20.620Z,101852.50
2022-11-13T09:10:23.110Z,101856.63
2022-11-13T09:12:24.943Z,101860.25
2022-11-13T09:14:28.216Z,101853.78
2022-11-13T09:16:30.448Z,101853.06
2022-11-13T09:18:32.453Z,101858.91
2022-11-13T09:20:34.624Z,101849.69
2022-11-13T09:22:36.879Z,101850.72
2022-11-13T09:24:38.875Z,101835.41
2022-11-13T09:26:40.783Z,101840.84
2022-11-13T09:28:43.028Z,101847.91
2022-11-13T09:30:44.917Z,101846.41
2022-11-13T09:32:46.773Z,101849.13
2022-11-13T09:34:48.912Z,101836.53
2022-11-13T09:36:50.838Z,101841.13
2022-11-13T09:38:52.652Z,101845.66
2022-11-13T09:41:04.239Z,101842.03
2022-11-13T09:43:11.669Z,101828.44
2022-11-13T09:45:15.681Z,101838.72
2022-11-13T09:47:32.121Z,101831.81
2022-11-13T09:49:40.265Z,101832.53
2022-11-13T09:51:49.799Z,101831.28
2022-11-13T09:53:52.435Z,101829.09
2022-11-13T09:56:13.428Z,101827.56
2022-11-13T09:58:36.827Z,101839.81
2022-11-13T10:00:39.553Z,101832.81
2022-11-13T10:02:47.425Z,101840.50
2022-11-13T10:05:07.820Z,101833.47
2022-11-13T10:07:36.989Z,101826.44
2022-11-13T10:09:56.337Z,101814.59
2022-11-13T10:12:04.655Z,101828.38
2022-11-13T10:14:14.632Z,101822.13
2022-11-13T10:16:33.434Z,101825.31
2022-11-13T10:18:37.955Z,101828.53
2022-11-13T10:20:52.002Z,101817.22
2022-11-13T10:22:57.073Z,101794.75
2022-11-13T10:25:05.613Z,101808.19
2022-11-13T10:27:13.146Z,101810.75
2022-11-13T10:29:20.228Z,101813.81
2022-11-13T10:32:12.870Z,101811.38
2022-11-13T10:34:16.979Z,101820.69
2022-11-13T10:36:36.483Z,101816.44
2022-11-13T10:38:44.897Z,101818.16
2022-11-13T10:40:47.115Z,101817.47
2022-11-13T10:42:48.931Z,101821.59
2022-11-13T10:44:57.300Z,101799.22
2022-11-13T10:47:36.482Z,101795.44
2022-11-13T10:49:42.315Z,101801.72
2022-11-13T10:51:44.184Z,101807.09
2022-11-13T10:53:47.306Z,101796.31
2022-11-13T10:55:53.003Z,101799.06
2022-11-13T10:58:00.617Z,101795.75
2022-11-13T11:00:22.985Z,101782.25
2022-11-13T11:02:26.711Z,101797.16
2022-11-13T11:04:29.050Z,101797.59
2022-11-13T11:07:04.590Z,101775.22
2022-11-13T11:09:20.542Z,101790.84
2022-11-13T11:11:41.201Z,101793.81
2022-11-13T11:13:43.266Z,101768.25
2022-11-13T11:15:51.903Z,101799.06
2022-11-13T11:18:05.018Z,101802.38
2022-11-13T11:20:48.670Z,101793.28
2022-11-13T11:22:55.115Z,101802.75
2022-11-13T11:25:09.247Z,101805.81
2022-11-13T11:27:23.124Z,101794.56
2022-11-13T11:29:44.382Z,101782.53
2022-11-13T11:32:16.051Z,101798.44
2022-11-13T11:34:24.640Z,101784.69
2022-11-13T11:36:46.309Z,101793.53
2022-11-13T11:39:13.410Z,101786.44
2022-11-13T11:41:19.210Z,101782.22
2022-11-13T11:43:37.808Z,101794.03
2022-11-13T11:45:43.550Z,101729.00
2022-11-13T11:47:45.473Z,101774.44
2022-11-13T11:49:47.522Z,101780.88
2022-11-13T11:52:13.094Z,101776.25
2022-11-13T11:54:28.443Z,101777.06
2022-11-13T11:56:47.479Z,101773.06
2022-11-13T11:58:54.743Z,101775.66
2022-11-13T12:01:06.721Z,101766.41
2022-11-13T12:03:55.591Z,101775.84
2022-11-13T12:06:11.957Z,101767.84
2022-11-13T12:08:44.978Z,101759.63
2022-11-13T12:10:58.353Z,101767.63
2022-11-13T12:13:16.771Z,101769.91
2022-11-13T12:15:26.794Z,101761.59
2022-11-13T12:17:40.636Z,101771.44
2022-11-13T12:20:07.557Z,101763.50
2022-11-13T12:22:48.628Z,101749.75
2022-11-13T12:25:00.646Z,101764.94
2022-11-13T12:27:31.288Z,101761.47
2022-11-13T12:29:38.742Z,101760.53
2022-11-13T12:32:04.904Z,101764.34
2022-11-13T12:34:46.050Z,101767.41
2022-11-13T12:36:49.341Z,101749.97
2022-11-13T12:38:54.964Z,101764.97
2022-11-13T12:41:02.582Z,101764.75
2022-11-13T12:43:28.783Z,101752.03
2022-11-13T12:45:49.807Z,101734.88
2022-11-13T12:47:52.311Z,101742.34
2022-11-13T12:50:02.863Z,101743.59
2022-11-13T12:52:16.450Z,101741.38
2022-11-13T12:54:25.759Z,101752.03
2022-11-13T12:56:28.031Z,101750.81
2022-11-13T12:58:33.545Z,101740.34
2022-11-13T13:00:38.129Z,101751.44
2022-11-13T13:02:55.480Z,101735.81
2022-11-13T13:05:40.852Z,101752.84
2022-11-13T13:07:52.201Z,101746.25
2022-11-13T13:10:13.894Z,101748.84
2022-11-13T13:12:54.082Z,101739.50
2022-11-13T13:15:11.926Z,101744.94
2022-11-13T13:17:13.740Z,101750.06
2022-11-13T13:19:26.937Z,101746.47
2022-11-13T13:21:41.347Z,101741.75
2022-11-13T13:23:48.654Z,101742.38
2022-11-13T13:26:21.832Z,101735.31
2022-11-13T13:28:24.221Z,101743.41
2022-11-13T13:30:27.607Z,101729.13
2022-11-13T13:32:40.984Z,101736.22
2022-11-13T13:35:07.246Z,101723.72
2022-11-13T13:37:37.648Z,101724.09
2022-11-13T13:40:00.341Z,101729.84
2022-11-13T13:42:23.787Z,101732.53
2022-11-13T13:44:37.987Z,101733.94
2022-11-13T13:46:41.411Z,101706.84
2022-11-13T13:48:46.155Z,101722.56
2022-11-13T13:50:50.470Z,101705.63
2022-11-13T13:52:56.053Z,101706.66
2022-11-13T13:55:01.773Z,101723.81
2022-11-13T13:57:03.750Z,101708.91
2022-11-13T13:59:06.544Z,101716.31
2022-11-13T14:01:19.410Z,101722.69
2022-11-13T14:03:25.151Z,101715.41
2022-11-13T14:05:31.173Z,101711.19
2022-11-13T14:07:35.547Z,101698.84
2022-11-13T14:09:37.443Z,101704.19
2022-11-13T14:11:39.366Z,101701.03
2022-11-13T14:13:42.114Z,101713.13
2022-11-13T14:15:44.214Z,101706.56
2022-11-13T14:17:46.021Z,101697.31
2022-11-13T14:19:56.645Z,101707.25
2022-11-13T14:22:03.977Z,101697.09
2022-11-13T14:24:14.643Z,101697.84
2022-11-13T14:26:18.465Z,101697.31
2022-11-13T14:28:23.964Z,101704.81
2022-11-13T14:30:28.536Z,101712.00
2022-11-13T14:32:34.457Z,101692.41
2022-11-13T14:34:37.292Z,101705.63
2022-11-13T14:36:40.921Z,101697.53
2022-11-13T14:38:51.814Z,101711.59
2022-11-13T14:40:54.615Z,101708.31
2022-11-13T14:43:07.667Z,101708.91
2022-11-13T14:45:16.172Z,101709.66
2022-11-13T14:47:37.535Z,101710.75
2022-11-13T14:49:39.789Z,101699.03
2022-11-13T14:51:42.252Z,101703.66
2022-11-13T14:53:44.095Z,101695.25
2022-11-13T14:55:53.996Z,101700.69
2022-11-13T14:57:56.270Z,101698.63
2022-11-13T15:00:13.258Z,101686.13
2022-11-13T15:02:15.156Z,101691.06
2022-11-13T15:04:17.335Z,101696.59
2022-11-13T15:06:21.787Z,101679.13
2022-11-13T15:08:23.571Z,101684.47
2022-11-13T15:10:28.420Z,101691.66
2022-11-13T15:12:30.310Z,101673.81
2022-11-13T15:14:33.211Z,101667.66
2022-11-13T15:16:36.349Z,101665.31
2022-11-13T15:18:38.136Z,101671.66
2022-11-13T15:20:41.364Z,101663.66
2022-11-13T15:22:43.848Z,101680.16
2022-11-13T15:24:45.753Z,101657.78
2022-11-13T15:26:47.628Z,101667.03
2022-11-13T15:28:50.342Z,101663.94
2022-11-13T15:30:52.377Z,101656.06
2022-11-13T15:32:54.860Z,101666.41
2022-11-13T15:34:57.182Z,101668.03
2022-11-13T15:36:58.999Z,101672.06
2022-11-13T15:39:06.203Z,101655.00
2022-11-13T15:41:13.883Z,101672.78
2022-11-13T15:43:22.370Z,101674.31
2022-11-13T15:45:25.658Z,101668.03
2022-11-13T15:47:35.778Z,101672.34
2022-11-13T15:49:40.659Z,101664.03
2022-11-13T15:51:48.924Z,101655.72
2022-11-13T15:53:58.831Z,101665.06
2022-11-13T15:56:03.268Z,101666.41
2022-11-13T15:58:05.122Z,101662.13
2022-11-13T16:00:17.190Z,101674.81
2022-11-13T16:02:19.953Z,101670.25
2022-11-13T16:04:22.275Z,101649.69
2022-11-13T16:06:24.832Z,101658.75
2022-11-13T16:08:27.024Z,101674.44
2022-11-13T16:10:29.263Z,101676.31
2022-11-13T16:12:31.599Z,101674.44
2022-11-13T16:14:33.391Z,101651.03
2022-11-13T16:16:38.515Z,101682.84
2022-11-13T16:18:40.935Z,101671.84
2022-11-13T16:20:42.702Z,101661.59
2022-11-13T16:22:45.082Z,101667.22
2022-11-13T16:24:47.603Z,101670.78
2022-11-13T16:26:54.679Z,101675.03
2022-11-13T16:31:19.916Z,101681.16
2022-11-13T16:33:21.735Z,101662.19
2022-11-13T16:35:23.549Z,101676.06
2022-11-13T16:37:25.774Z,101679.34
2022-11-13T16:39:27.798Z,101675.03
2022-11-13T16:41:31.674Z,101682.19
2022-11-13T16:43:33.925Z,101678.59
2022-11-13T16:45:38.461Z,101682.09
2022-11-13T16:47:40.363Z,101682.00
2022-11-13T16:49:42.565Z,101682.41
2022-11-13T16:51:45.991Z,101672.25
2022-11-13T16:53:47.898Z,101668.97
2022-11-13T16:55:50.139Z,101672.66
2022-11-13T16:57:52.021Z,101688.78
2022-11-13T16:59:53.805Z,101672.97
2022-11-13T17:01:56.122Z,101677.50
2022-11-13T17:03:58.349Z,101671.09
2022-11-13T17:06:00.161Z,101659.00
2022-11-13T17:08:02.683Z,101666.09
2022-11-13T17:10:29.767Z,101665.16
2022-11-13T17:12:27.111Z,101667.84
2022-11-13T17:14:29.332Z,101679.72
2022-11-13T17:16:32.131Z,101662.91
2022-11-13T17:18:34.674Z,101667.44
2022-11-13T17:20:37.229Z,101672.66
2022-11-13T17:22:48.251Z,101662.78
2022-11-13T17:24:50.656Z,101678.09
2022-11-13T17:26:53.667Z,101654.81
2022-11-13T17:28:58.454Z,101662.28
2022-11-13T17:31:05.742Z,101671.75
2022-11-13T17:33:07.906Z,101668.75
2022-11-13T17:35:12.805Z,101672.16
2022-11-13T17:37:14.911Z,101648.78
2022-11-13T17:39:17.092Z,101675.44
2022-11-13T17:41:19.267Z,101678.81
2022-11-13T17:43:22.218Z,101644.66
2022-11-13T17:45:24.653Z,101669.56
2022-11-13T17:47:26.596Z,101654.38
2022-11-13T17:49:28.813Z,101653.88
2022-11-13T17:51:31.003Z,101658.41
2022-11-13T17:53:33.797Z,101643.09
2022-11-13T17:55:35.622Z,101656.34
2022-11-13T17:57:37.815Z,101647.31
2022-11-13T17:59:40.284Z,101656.16
2022-11-13T18:01:42.282Z,101632.34
2022-11-13T18:03:44.479Z,101647.63
2022-11-13T18:05:46.765Z,101628.56
2022-11-13T18:07:48.641Z,101638.00
2022-11-13T18:09:50.856Z,101643.75
2022-11-13T18:11:52.790Z,101653.38
2022-11-13T18:13:54.829Z,101644.97
2022-11-13T18:16:03.720Z,101648.25
2022-11-13T18:18:07.140Z,101632.75
2022-11-13T18:20:09.953Z,101639.31
2022-11-13T18:22:12.078Z,101642.59
2022-11-13T18:24:17.154Z,101639.00
2022-11-13T18:26:19.389Z,101634.41
2022-11-13T18:28:21.703Z,101641.38
2022-11-13T18:30:23.504Z,101646.00
2022-11-13T18:32:25.430Z,101636.84
2022-11-13T18:34:28.975Z,101644.63
2022-11-13T18:36:32.421Z,101644.84
2022-11-13T18:38:34.439Z,101618.09
2022-11-13T18:40:38.098Z,101648.44
2022-11-13T18:42:39.911Z,101642.09
2022-11-13T18:44:41.683Z,101642.50
2022-11-13T18:46:44.107Z,101640.00
2022-11-13T18:48:47.177Z,101643.78
2022-11-13T18:50:59.867Z,101629.88
2022-11-13T18:53:02.051Z,101641.53
2022-11-13T18:55:04.212Z,101635.78
2022-11-13T18:57:06.015Z,101630.44
2022-11-13T18:59:08.443Z,101656.94
2022-11-13T19:01:22.151Z,101630.22
2022-11-13T19:03:25.041Z,101631.13
2022-11-13T19:05:27.265Z,101635.56
2022-11-13T19:07:29.451Z,101641.53
2022-11-13T19:09:31.325Z,101627.44
2022-11-13T19:11:34.237Z,101648.44
2022-11-13T19:13:37.382Z,101647.63
2022-11-13T19:15:39.585Z,101648.19
2022-11-13T19:17:42.303Z,101661.13
2022-11-13T19:19:44.618Z,101657.00
2022-11-13T19:21:47.339Z,101661.84
2022-11-13T19:23:50.271Z,101629.78
2022-11-13T19:25:52.155Z,101661.22
2022-11-13T19:27:54.382Z,101654.84
2022-11-13T19:29:56.601Z,101658.00
2022-11-13T19:31:58.383Z,101661.34
2022-11-13T19:34:03.401Z,101656.22
2022-11-13T19:36:08.931Z,101595.91
2022-11-13T19:38:10.705Z,101635.47
2022-11-13T19:40:12.788Z,101661.31
2022-11-13T19:42:15.054Z,101662.22
2022-11-13T19:44:17.194Z,101658.88
2022-11-13T19:46:20.008Z,101651.69
2022-11-13T19:48:22.585Z,101652.34
2022-11-13T19:50:24.577Z,101661.16
2022-11-13T19:52:26.566Z,101666.47
2022-11-13T19:54:28.891Z,101651.31
2022-11-13T19:56:30.658Z,101670.97
2022-11-13T19:58:33.581Z,101654.75
2022-11-13T20:00:36.312Z,101666.69
2022-11-13T20:02:38.300Z,101666.84
2022-11-13T20:04:40.256Z,101615.84
2022-11-13T20:06:42.464Z,101650.72
2022-11-13T20:08:44.742Z,101657.59
2022-11-13T20:10:46.534Z,101658.81
2022-11-13T20:12:49.229Z,101662.31
2022-11-13T20:14:51.010Z,101663.56
2022-11-13T20:16:52.804Z,101673.97
2022-11-13T20:18:57.112Z,101677.59
2022-11-13T20:20:59.374Z,101673.78
2022-11-13T20:23:01.479Z,101674.31
2022-11-13T20:25:03.996Z,101682.88
2022-11-13T20:27:06.199Z,101668.97
2022-11-13T20:29:08.113Z,101668.28
2022-11-13T20:31:22.302Z,101669.94
2022-11-13T20:33:24.315Z,101666.13
2022-11-13T20:35:26.168Z,101653.56
2022-11-13T20:37:28.299Z,101662.22
2022-11-13T20:39:30.169Z,101637.22
2022-11-13T20:41:32.187Z,101663.22
2022-11-13T20:43:34.429Z,101649.66
2022-11-13T20:45:36.285Z,101664.63
2022-11-13T20:47:38.205Z,101654.44
2022-11-13T20:49:40.568Z,101652.31
2022-11-13T20:51:42.359Z,101663.25
2022-11-13T20:53:44.374Z,101637.66
2022-11-13T20:55:46.519Z,101664.47
2022-11-13T20:57:48.307Z,101658.00
2022-11-13T20:59:50.167Z,101651.16
2022-11-13T21:01:52.488Z,101666.19
2022-11-13T21:03:56.095Z,101659.25
2022-11-13T21:05:58.599Z,101642.72
2022-11-13T21:08:00.872Z,101643.09
2022-11-13T21:10:02.788Z,101648.25
2022-11-13T21:12:04.909Z,101653.72
2022-11-13T21:14:07.076Z,101640.41
2022-11-13T21:16:09.754Z,101657.13
2022-11-13T21:18:11.612Z,101648.19
2022-11-13T21:20:14.088Z,101652.28
2022-11-13T21:22:15.967Z,101651.84
2022-11-13T21:24:17.939Z,101627.69
2022-11-13T21:26:20.097Z,101630.84
2022-11-13T21:28:24.169Z,101648.91
2022-11-13T21:30:28.682Z,101643.47
2022-11-13T21:32:31.375Z,101579.00
2022-11-13T21:34:33.231Z,101648.34
2022-11-13T21:36:35.107Z,101640.72
2022-11-13T21:38:37.601Z,101631.06
2022-11-13T21:40:39.368Z,101648.09
2022-11-13T21:42:41.312Z,101635.78
2022-11-13T21:44:43.503Z,101639.28
2022-11-13T21:46:45.932Z,101648.50
2022-11-13T21:48:49.401Z,101656.69
2022-11-13T21:50:51.613Z,101653.47
2022-11-13T21:52:53.460Z,101650.72
2022-11-13T21:54:55.239Z,101637.38
2022-11-13T21:56:57.427Z,101635.84
2022-11-13T21:58:59.787Z,101654.31
2022-11-13T22:01:01.871Z,101645.13
2022-11-13T22:03:04.127Z,101631.47
2022-11-13T22:05:06.440Z,101631.09
2022-11-13T22:07:08.540Z,101624.00
2022-11-13T22:09:19.871Z,101649.47
2022-11-13T22:11:23.070Z,101647.16
2022-11-13T22:13:24.861Z,101649.75
2022-11-13T22:15:27.056Z,101647.66
2022-11-13T22:17:28.808Z,101645.84
2022-11-13T22:19:35.652Z,101649.06
2022-11-13T22:21:40.008Z,101646.25
2022-11-13T22:23:41.950Z,101642.75
2022-11-13T22:25:43.731Z,101626.75
2022-11-13T22:27:46.408Z,101639.97
2022-11-13T22:29:48.167Z,101643.94
2022-11-13T22:31:50.161Z,101627.69
2022-11-13T22:33:55.127Z,101626.22
2022-11-13T22:36:08.701Z,101634.38
2022-11-13T22:38:11.511Z,101631.75
2022-11-13T22:40:14.262Z,101627.63
2022-11-13T22:42:16.127Z,101626.66
2022-11-13T22:44:18.458Z,101624.16
2022-11-13T22:46:25.822Z,101604.34
2022-11-13T22:48:28.005Z,101625.78
2022-11-13T22:50:30.057Z,101610.63
2022-11-13T22:52:32.378Z,101623.47
2022-11-13T22:54:34.209Z,101620.19
2022-11-13T22:56:37.314Z,101615.75
2022-11-13T22:58:39.499Z,101620.84
2022-11-13T23:00:41.450Z,101615.41
2022-11-13T23:02:47.279Z,101599.13
2022-11-13T23:04:49.907Z,101608.44
2022-11-13T23:06:51.749Z,101607.25
2022-11-13T23:08:54.699Z,101609.19
2022-11-13T23:10:57.638Z,101601.25
2022-11-13T23:12:59.575Z,101602.91
2022-11-13T23:15:01.354Z,101609.25
2022-11-13T23:17:03.785Z,101588.94
2022-11-13T23:19:05.841Z,101591.63
2022-11-13T23:21:09.228Z,101602.47
2022-11-13T23:23:11.452Z,101583.72
2022-11-13T23:25:13.313Z,101593.28
2022-11-13T23:27:15.093Z,101588.34
2022-11-13T23:29:17.317Z,101586.78
2022-11-13T23:31:19.504Z,101593.00
2022-11-13T23:33:21.387Z,101594.09
2022-11-13T23:35:23.921Z,101603.28
2022-11-13T23:37:25.703Z,101597.53
2022-11-13T23:39:27.577Z,101590.06
2022-11-13T23:41:29.715Z,101580.09
2022-11-13T23:44:07.126Z,101592.09
2022-11-13T23:45:53.832Z,101580.75
2022-11-13T23:47:56.083Z,101578.25
2022-11-13T23:49:57.937Z,101592.22
2022-11-13T23:51:59.762Z,101583.72